createdAt,value
2017-11-14T00:04:40.290Z,27.30
2017-11-14T00:09:42.077Z,16.20
2017-11-14T00:14:43.825Z,12.00
2017-11-14T00:19:45.556Z,11.70
2017-11-14T00:24:47.275Z,16.13
2017-11-14T00:29:49.714Z,8.23
2017-11-14T00:34:51.445Z,15.00
2017-11-14T00:39:53.216Z,12.67
2017-11-14T00:44:54.915Z,22.90
2017-11-14T00:49:56.665Z,15.87
2017-11-14T00:54:58.348Z,13.37
2017-11-14T01:00:00.067Z,15.90
2017-11-14T01:05:02.536Z,10.93
2017-11-14T01:10:04.295Z,16.03
2017-11-14T01:15:06.771Z,10.87
2017-11-14T01:20:08.529Z,9.03
2017-11-14T01:25:10.933Z,15.37
2017-11-14T01:30:13.425Z,17.90
2017-11-14T01:35:15.104Z,18.00
2017-11-14T01:40:16.922Z,16.63
2017-11-14T01:45:18.630Z,19.07
2017-11-14T01:50:20.328Z,17.80
2017-11-14T01:55:22.776Z,17.53
2017-11-14T02:00:36.729Z,25.10
2017-11-14T02:05:39.240Z,24.47
2017-11-14T02:10:40.972Z,23.57
2017-11-14T02:15:42.734Z,14.40
2017-11-14T02:20:44.457Z,16.90
2017-11-14T02:25:47.055Z,17.43
2017-11-14T02:30:48.877Z,15.73
2017-11-14T02:35:51.408Z,21.20
2017-11-14T02:40:53.226Z,16.77
2017-11-14T02:45:54.939Z,20.17
2017-11-14T02:50:56.711Z,13.83
2017-11-14T02:55:58.459Z,24.13
2017-11-14T03:01:00.224Z,18.40
2017-11-14T03:06:01.958Z,16.23
2017-11-14T03:11:03.702Z,19.37
2017-11-14T03:16:05.452Z,15.23
2017-11-14T03:21:07.163Z,15.20
2017-11-14T03:26:08.864Z,17.37
2017-11-14T03:31:10.650Z,14.60
2017-11-14T03:36:12.386Z,18.10
2017-11-14T03:41:14.886Z,27.47
2017-11-14T03:46:17.131Z,23.03
2017-11-14T03:51:19.451Z,20.77
2017-11-14T03:56:25.811Z,17.43
2017-11-14T04:01:28.305Z,12.27
2017-11-14T04:06:30.617Z,24.00
2017-11-14T04:11:32.468Z,27.70
2017-11-14T04:16:34.633Z,14.83
2017-11-14T04:21:41.534Z,11.30
2017-11-14T04:26:49.149Z,12.63
2017-11-14T04:31:52.746Z,21.33
2017-11-14T04:36:57.892Z,18.43
2017-11-14T04:42:05.745Z,11.53
2017-11-14T04:47:07.480Z,29.97
2017-11-14T04:52:10.165Z,25.07
2017-11-14T04:57:14.081Z,41.53
2017-11-14T05:02:20.529Z,36.63
2017-11-14T05:07:22.284Z,39.10
2017-11-14T05:12:23.970Z,32.47
2017-11-14T05:17:26.411Z,26.27
2017-11-14T05:22:28.163Z,33.13
2017-11-14T05:27:30.692Z,33.97
2017-11-14T05:32:33.278Z,40.40
2017-11-14T05:37:35.044Z,35.20
2017-11-14T05:42:36.832Z,34.30
2017-11-14T05:47:38.560Z,37.50
2017-11-14T05:52:40.242Z,35.90
2017-11-14T05:57:42.028Z,30.47
2017-11-14T06:02:43.744Z,39.40
2017-11-14T06:07:45.417Z,50.03
2017-11-14T06:12:47.130Z,44.97
2017-11-14T06:17:48.828Z,32.43
2017-11-14T06:22:51.490Z,40.07
2017-11-14T06:27:53.196Z,40.63
2017-11-14T06:32:54.936Z,29.03
2017-11-14T06:37:56.605Z,31.70
2017-11-14T06:42:59.064Z,38.50
2017-11-14T06:48:00.801Z,29.70
2017-11-14T06:53:02.505Z,29.40
2017-11-14T06:58:04.249Z,25.90
2017-11-14T07:03:05.942Z,42.07
2017-11-14T07:08:07.698Z,27.33
2017-11-14T07:13:09.389Z,25.90
2017-11-14T07:18:11.352Z,38.57
2017-11-14T07:23:13.861Z,24.13
2017-11-14T07:28:15.554Z,40.33
2017-11-14T07:33:18.074Z,32.03
2017-11-14T07:38:19.787Z,19.37
2017-11-14T07:43:21.502Z,26.33
2017-11-14T07:48:23.204Z,26.53
2017-11-14T07:53:24.882Z,27.10
2017-11-14T07:58:26.560Z,25.67
2017-11-14T08:03:29.004Z,23.83
2017-11-14T08:08:30.691Z,28.03
2017-11-14T08:13:32.359Z,25.87
2017-11-14T08:18:34.840Z,37.17
2017-11-14T08:23:36.542Z,30.37
2017-11-14T08:28:38.267Z,29.10
2017-11-14T08:33:41.031Z,20.80
2017-11-14T08:38:42.751Z,27.77
2017-11-14T08:43:44.455Z,21.57
2017-11-14T08:48:46.180Z,25.53
2017-11-14T08:53:47.889Z,25.43
2017-11-14T08:58:50.298Z,26.37
2017-11-14T09:03:52.747Z,25.50
2017-11-14T09:08:54.534Z,26.50
2017-11-14T09:13:56.278Z,31.13
2017-11-14T09:18:58.049Z,25.80
2017-11-14T09:23:59.789Z,28.13
2017-11-14T09:29:01.553Z,29.60
2017-11-14T09:34:03.381Z,28.70
2017-11-14T09:39:05.100Z,30.73
2017-11-14T09:44:06.882Z,32.53
2017-11-14T09:49:08.636Z,33.00
2017-11-14T09:54:10.404Z,23.43
2017-11-14T09:59:12.916Z,30.40
2017-11-14T10:04:15.419Z,36.70
2017-11-14T10:09:17.204Z,25.23
2017-11-14T10:14:18.962Z,23.80
2017-11-14T10:19:20.724Z,30.03
2017-11-14T10:24:22.495Z,28.87
2017-11-14T10:29:24.276Z,30.43
2017-11-14T10:34:26.048Z,27.30
2017-11-14T10:39:28.591Z,21.90
2017-11-14T10:44:30.343Z,29.07
2017-11-14T10:49:32.094Z,33.97
2017-11-14T10:54:33.843Z,21.23
2017-11-14T10:59:35.609Z,20.73
2017-11-14T11:04:37.391Z,15.07
2017-11-14T11:09:39.207Z,19.93
2017-11-14T11:14:41.030Z,32.87
2017-11-14T11:19:42.808Z,30.27
2017-11-14T11:24:44.605Z,22.73
2017-11-14T11:29:46.367Z,26.23
2017-11-14T11:34:48.141Z,21.00
2017-11-14T11:39:50.711Z,17.30
2017-11-14T11:44:52.444Z,26.60
2017-11-14T11:49:54.520Z,23.20
2017-11-14T11:54:57.180Z,16.87
2017-11-14T11:59:58.963Z,22.60
2017-11-14T12:05:00.915Z,27.93
2017-11-14T12:10:02.773Z,21.30
2017-11-14T12:15:04.520Z,18.00
2017-11-14T12:20:06.429Z,11.93
2017-11-14T12:25:08.805Z,25.90
2017-11-14T12:30:10.637Z,15.33
2017-11-14T12:35:16.846Z,22.13
2017-11-14T12:40:19.050Z,21.07
2017-11-14T12:45:21.449Z,19.83
2017-11-14T12:50:23.305Z,18.13
2017-11-14T12:55:25.377Z,16.30
2017-11-14T13:00:27.346Z,12.07
2017-11-14T13:05:29.028Z,10.40
2017-11-14T13:10:30.756Z,13.50
2017-11-14T13:15:33.180Z,10.10
2017-11-14T13:20:36.200Z,10.60
2017-11-14T13:25:38.772Z,9.03
2017-11-14T13:30:40.579Z,12.97
2017-11-14T13:35:42.283Z,11.60
2017-11-14T13:40:44.623Z,12.27
2017-11-14T13:45:47.145Z,14.83
2017-11-14T13:50:50.603Z,25.47
2017-11-14T13:55:54.018Z,9.20
2017-11-14T14:00:56.216Z,15.10
2017-11-14T14:05:58.663Z,9.97
2017-11-14T14:11:01.752Z,16.53
2017-11-14T14:16:03.502Z,19.43
2017-11-14T14:21:07.820Z,13.10
2017-11-14T14:26:09.535Z,28.37
2017-11-14T14:31:11.249Z,19.93
2017-11-14T14:36:13.708Z,22.73
2017-11-14T14:41:15.427Z,17.97
2017-11-14T14:46:17.146Z,23.03
2017-11-14T14:51:18.822Z,17.30
2017-11-14T14:56:20.531Z,13.50
2017-11-14T15:01:22.685Z,13.70
2017-11-14T15:06:24.381Z,14.43
2017-11-14T15:11:26.091Z,19.80
2017-11-14T15:16:27.834Z,16.37
2017-11-14T15:21:29.571Z,13.50
2017-11-14T15:26:31.292Z,14.80
2017-11-14T15:31:32.997Z,15.67
2017-11-14T15:36:34.719Z,24.83
2017-11-14T15:41:36.430Z,25.97
2017-11-14T15:46:38.167Z,26.13
2017-11-14T15:51:39.892Z,23.83
2017-11-14T15:56:41.748Z,21.47
2017-11-14T16:01:44.187Z,20.20
2017-11-14T16:06:45.904Z,14.50
2017-11-14T16:11:47.594Z,17.20
2017-11-14T16:16:49.325Z,21.93
2017-11-14T16:21:51.167Z,16.97
2017-11-14T16:26:52.907Z,25.10
2017-11-14T16:31:54.584Z,19.03
2017-11-14T16:36:56.327Z,18.50
2017-11-14T16:41:58.044Z,14.73
2017-11-14T16:47:00.499Z,41.27
2017-11-14T16:52:02.223Z,24.73
2017-11-14T16:57:04.316Z,19.37
2017-11-14T17:02:06.054Z,23.77
2017-11-14T17:07:07.759Z,30.87
2017-11-14T17:12:10.255Z,28.33
2017-11-14T17:17:11.977Z,34.17
2017-11-14T17:22:14.448Z,26.70
2017-11-14T17:27:16.167Z,34.27
2017-11-14T17:32:17.843Z,30.73
2017-11-14T17:37:19.529Z,32.00
2017-11-14T17:42:21.217Z,27.73
2017-11-14T17:47:22.894Z,25.37
2017-11-14T17:52:25.339Z,29.47
2017-11-14T17:57:27.005Z,28.70
2017-11-14T18:02:29.417Z,29.03
2017-11-14T18:07:31.258Z,30.03
2017-11-14T18:12:32.973Z,27.97
2017-11-14T18:17:35.240Z,42.83
2017-11-14T18:22:37.555Z,28.57
2017-11-14T18:27:39.269Z,35.17
2017-11-14T18:32:40.963Z,28.50
2017-11-14T18:37:42.686Z,29.47
2017-11-14T18:42:44.387Z,31.37
2017-11-14T18:47:46.140Z,31.20
2017-11-14T18:52:47.877Z,39.20
2017-11-14T18:57:49.568Z,40.40
2017-11-14T19:02:51.389Z,43.20
2017-11-14T19:07:53.108Z,44.83
2017-11-14T19:12:54.905Z,52.17
2017-11-14T19:17:56.591Z,40.93
2017-11-14T19:22:58.269Z,44.93
2017-11-14T19:28:00.052Z,43.90
2017-11-14T19:33:02.645Z,44.57
2017-11-14T19:38:04.398Z,40.60
2017-11-14T19:43:06.130Z,42.70
2017-11-14T19:48:07.927Z,47.70
2017-11-14T19:53:10.394Z,36.53
2017-11-14T19:58:12.482Z,40.17
2017-11-14T20:03:14.202Z,42.30
2017-11-14T20:08:15.905Z,43.40
2017-11-14T20:13:17.628Z,44.13
2017-11-14T20:18:19.359Z,48.70
2017-11-14T20:23:21.797Z,47.17
2017-11-14T20:28:23.528Z,35.53
2017-11-14T20:33:25.215Z,42.63
2017-11-14T20:38:27.810Z,38.77
2017-11-14T20:43:30.849Z,34.03
2017-11-14T20:48:32.583Z,37.60
2017-11-14T20:53:34.276Z,40.50
2017-11-14T20:58:36.448Z,35.43
2017-11-14T21:03:38.184Z,40.60
2017-11-14T21:08:39.887Z,38.70
2017-11-14T21:13:41.608Z,44.03
2017-11-14T21:18:43.684Z,37.20
2017-11-14T21:23:45.436Z,46.93
2017-11-14T21:28:47.206Z,39.80
2017-11-14T21:33:49.667Z,43.97
2017-11-14T21:38:51.459Z,44.93
2017-11-14T21:43:53.564Z,48.47
2017-11-14T21:48:55.389Z,46.40
2017-11-14T21:53:57.067Z,48.83
2017-11-14T21:58:58.818Z,44.37
2017-11-14T22:04:00.505Z,48.57
2017-11-14T22:09:02.186Z,44.10
2017-11-14T22:14:03.891Z,43.20
2017-11-14T22:19:05.582Z,44.90
2017-11-14T22:24:07.321Z,52.80
2017-11-14T22:29:09.787Z,61.53
2017-11-14T22:34:11.482Z,61.10
2017-11-14T22:39:13.384Z,46.40
2017-11-14T22:44:15.087Z,49.37
2017-11-14T22:49:16.811Z,48.20
2017-11-14T22:54:18.531Z,58.53
2017-11-14T22:59:20.999Z,47.33
2017-11-14T23:04:22.710Z,46.33
2017-11-14T23:09:24.425Z,42.27
2017-11-14T23:14:26.165Z,47.90
2017-11-14T23:19:27.868Z,44.63
2017-11-14T23:24:29.564Z,45.07
2017-11-14T23:29:31.272Z,46.10
2017-11-14T23:34:33.003Z,44.77
2017-11-14T23:39:34.745Z,48.20
2017-11-14T23:44:37.275Z,55.63
2017-11-14T23:49:39.057Z,57.10
2017-11-14T23:54:41.521Z,56.73
2017-11-14T23:59:43.199Z,63.70
